createdAt,value
2022-09-06T00:01:16.102Z,0.68
2022-09-06T00:03:44.052Z,1.00
2022-09-06T00:06:15.950Z,1.00
2022-09-06T00:08:45.649Z,1.00
2022-09-06T00:11:13.645Z,1.17
2022-09-06T00:13:41.278Z,0.60
2022-09-06T00:16:11.323Z,0.95
2022-09-06T00:18:39.630Z,0.73
2022-09-06T00:21:22.483Z,0.73
2022-09-06T00:23:50.122Z,0.90
2022-09-06T00:26:17.885Z,0.73
2022-09-06T00:28:45.828Z,0.82
2022-09-06T00:31:22.241Z,0.70
2022-09-06T00:33:50.376Z,0.77
2022-09-06T00:36:18.378Z,1.63
2022-09-06T00:38:46.045Z,1.10
2022-09-06T00:41:15.262Z,1.15
2022-09-06T00:43:43.725Z,1.15
2022-09-06T00:46:19.194Z,1.20
2022-09-06T00:48:49.836Z,1.27
2022-09-06T00:51:19.577Z,1.08
2022-09-06T00:53:47.547Z,1.13
2022-09-06T00:56:15.591Z,1.73
2022-09-06T00:58:43.449Z,1.60
2022-09-06T01:01:11.130Z,1.50
2022-09-06T01:03:39.436Z,2.03
2022-09-06T01:06:18.782Z,2.17
2022-09-06T01:09:02.958Z,1.80
2022-09-06T01:11:52.063Z,1.98
2022-09-06T01:14:41.621Z,3.40
2022-09-06T01:17:27.040Z,2.13
2022-09-06T01:20:28.156Z,2.00
2022-09-06T01:23:13.662Z,1.98
2022-09-06T01:26:06.534Z,1.80
2022-09-06T01:28:47.013Z,3.13
2022-09-06T01:31:26.880Z,2.00
2022-09-06T01:34:06.711Z,2.63
2022-09-06T01:37:08.444Z,2.15
2022-09-06T01:39:37.746Z,2.45
2022-09-06T01:42:16.852Z,2.05
2022-09-06T01:44:49.940Z,1.83
2022-09-06T01:47:52.798Z,1.90
2022-09-06T01:50:47.045Z,1.73
2022-09-06T01:53:52.559Z,2.10
2022-09-06T01:56:48.871Z,2.28
2022-09-06T01:59:47.810Z,1.70
2022-09-06T02:02:38.311Z,1.52
2022-09-06T02:05:37.117Z,3.35
2022-09-06T02:08:16.756Z,1.90
2022-09-06T02:10:51.587Z,1.58
2022-09-06T02:13:22.373Z,1.95
2022-09-06T02:15:58.001Z,2.72
2022-09-06T02:18:49.900Z,2.13
2022-09-06T02:21:23.357Z,2.10
2022-09-06T02:23:54.659Z,1.80
2022-09-06T02:26:26.589Z,1.92
2022-09-06T02:28:54.414Z,2.22
2022-09-06T02:31:31.375Z,1.67
2022-09-06T02:33:59.562Z,1.98
2022-09-06T02:36:27.461Z,1.98
2022-09-06T02:38:55.721Z,1.60
2022-09-06T02:41:25.330Z,1.85
2022-09-06T02:43:52.839Z,2.22
2022-09-06T02:46:20.428Z,2.53
2022-09-06T02:48:48.075Z,1.58
2022-09-06T02:51:15.580Z,2.15
2022-09-06T02:53:44.054Z,2.08
2022-09-06T02:56:11.737Z,2.00
2022-09-06T02:58:40.139Z,2.40
2022-09-06T03:01:07.838Z,2.20
2022-09-06T03:03:35.518Z,1.98
2022-09-06T03:06:03.147Z,2.10
2022-09-06T03:08:33.500Z,2.45
2022-09-06T03:11:01.970Z,2.13
2022-09-06T03:13:29.701Z,1.98
2022-09-06T03:15:59.773Z,2.47
2022-09-06T03:18:29.790Z,2.13
2022-09-06T03:20:58.254Z,1.85
2022-09-06T03:23:28.279Z,1.90
2022-09-06T03:25:56.648Z,2.25
2022-09-06T03:28:24.614Z,1.95
2022-09-06T03:30:52.880Z,1.90
2022-09-06T03:33:21.569Z,2.15
2022-09-06T03:35:54.240Z,2.20
2022-09-06T03:38:22.470Z,2.55
2022-09-06T03:40:50.878Z,2.53
2022-09-06T03:43:18.924Z,2.25
2022-09-06T03:45:51.793Z,3.10
2022-09-06T03:48:20.854Z,3.75
2022-09-06T03:50:50.201Z,3.75
2022-09-06T03:53:19.077Z,3.42
2022-09-06T03:55:48.067Z,3.83
2022-09-06T03:58:17.312Z,3.92
2022-09-06T04:00:45.225Z,3.70
2022-09-06T04:03:13.239Z,4.38
2022-09-06T04:05:40.907Z,4.97
2022-09-06T04:08:08.429Z,4.97
2022-09-06T04:10:35.905Z,5.63
2022-09-06T04:13:03.388Z,6.10
2022-09-06T04:15:30.872Z,6.05
2022-09-06T04:17:58.471Z,5.18
2022-09-06T04:20:25.969Z,6.65
2022-09-06T04:22:53.633Z,6.07
2022-09-06T04:25:21.122Z,7.22
2022-09-06T04:27:48.701Z,6.60
2022-09-06T04:30:16.335Z,6.95
2022-09-06T04:32:43.843Z,7.55
2022-09-06T04:35:11.402Z,6.68
2022-09-06T04:37:38.924Z,6.88
2022-09-06T04:40:07.026Z,7.85
2022-09-06T04:42:34.629Z,7.88
2022-09-06T04:45:02.166Z,9.52
2022-09-06T04:47:29.839Z,7.32
2022-09-06T04:49:57.359Z,8.65
2022-09-06T04:52:29.499Z,7.28
2022-09-06T04:54:57.675Z,6.85
2022-09-06T04:57:25.186Z,8.05
2022-09-06T04:59:54.283Z,8.35
2022-09-06T05:02:21.863Z,8.55
2022-09-06T05:04:49.417Z,8.68
2022-09-06T05:07:17.097Z,8.90
2022-09-06T05:09:44.586Z,8.93
2022-09-06T05:12:12.133Z,9.30
2022-09-06T05:14:39.707Z,9.63
2022-09-06T05:17:07.188Z,9.90
2022-09-06T05:19:34.864Z,10.35
2022-09-06T05:22:02.526Z,9.32
2022-09-06T05:24:30.028Z,10.70
2022-09-06T05:26:57.636Z,10.48
2022-09-06T05:29:28.770Z,10.80
2022-09-06T05:31:58.424Z,11.45
2022-09-06T05:34:26.006Z,11.13
2022-09-06T05:36:53.970Z,11.27
2022-09-06T05:39:21.937Z,11.07
2022-09-06T05:41:49.638Z,10.60
2022-09-06T05:44:17.160Z,11.05
2022-09-06T05:46:46.210Z,11.20
2022-09-06T05:49:14.841Z,11.48
2022-09-06T05:51:42.302Z,11.65
2022-09-06T05:54:12.808Z,10.30
2022-09-06T05:56:40.392Z,10.77
2022-09-06T05:59:07.901Z,10.60
2022-09-06T06:01:35.586Z,11.27
2022-09-06T06:04:05.791Z,10.00
2022-09-06T06:06:35.274Z,10.15
2022-09-06T06:09:03.042Z,12.10
2022-09-06T06:11:31.746Z,11.43
2022-09-06T06:13:59.999Z,10.88
2022-09-06T06:16:27.840Z,11.35
2022-09-06T06:18:55.801Z,11.13
2022-09-06T06:21:25.462Z,9.93
2022-09-06T06:24:04.072Z,13.85
2022-09-06T06:26:37.190Z,9.98
2022-09-06T06:29:08.201Z,8.45
2022-09-06T06:31:36.437Z,10.18
2022-09-06T06:34:04.517Z,10.32
2022-09-06T06:36:34.069Z,10.65
2022-09-06T06:39:03.037Z,10.20
2022-09-06T06:41:32.865Z,9.10
2022-09-06T06:44:04.994Z,8.88
2022-09-06T06:49:01.488Z,8.80
2022-09-06T06:51:36.068Z,8.70
2022-09-06T06:54:04.489Z,9.50
2022-09-06T06:56:33.490Z,7.55
2022-09-06T06:59:02.959Z,8.77
2022-09-06T07:01:32.965Z,7.80
2022-09-06T07:04:00.725Z,8.32
2022-09-06T07:09:18.226Z,9.77
2022-09-06T07:11:46.348Z,8.23
2022-09-06T07:14:13.897Z,7.35
2022-09-06T07:16:41.470Z,7.55
2022-09-06T07:22:00.284Z,7.90
2022-09-06T07:24:30.185Z,7.35
2022-09-06T07:29:45.275Z,6.93
2022-09-06T07:32:12.819Z,7.00
2022-09-06T07:34:40.368Z,6.00
2022-09-06T07:37:07.941Z,5.88
2022-09-06T07:39:37.061Z,5.72
2022-09-06T07:42:05.008Z,6.50
2022-09-06T07:44:33.059Z,6.50
2022-09-06T07:55:26.467Z,6.35
2022-09-06T07:57:54.045Z,6.10
2022-09-06T08:00:21.660Z,6.43
2022-09-06T08:02:49.167Z,5.72
2022-09-06T08:10:52.075Z,7.15
2022-09-06T08:13:19.590Z,6.28
2022-09-06T08:15:47.149Z,6.03
2022-09-06T08:18:14.763Z,7.00
2022-09-06T08:20:42.323Z,5.55
2022-09-06T08:23:12.719Z,6.05
2022-09-06T08:25:40.270Z,6.45
2022-09-06T08:28:07.925Z,7.45
2022-09-06T08:30:35.936Z,6.32
2022-09-06T08:33:04.225Z,6.22
2022-09-06T08:35:31.752Z,6.20
2022-09-06T08:37:59.398Z,6.03
2022-09-06T08:40:27.628Z,6.28
2022-09-06T08:42:55.446Z,5.90
2022-09-06T08:45:23.328Z,5.63
2022-09-06T08:47:52.440Z,4.97
2022-09-06T08:50:20.981Z,7.13
2022-09-06T08:53:23.327Z,5.32
2022-09-06T08:58:49.928Z,4.82
2022-09-06T09:01:25.594Z,4.70
2022-09-06T09:03:58.408Z,4.57
2022-09-06T09:06:27.787Z,3.42
2022-09-06T09:09:09.888Z,3.85
2022-09-06T09:11:38.027Z,4.38
2022-09-06T09:14:31.221Z,3.03
2022-09-06T09:17:06.252Z,2.63
2022-09-06T09:19:37.399Z,2.55
2022-09-06T09:22:05.073Z,3.22
2022-09-06T09:24:32.596Z,3.67
2022-09-06T09:27:22.168Z,2.63
2022-09-06T09:32:45.870Z,4.45
2022-09-06T09:35:33.863Z,3.47
2022-09-06T09:38:14.496Z,2.63
2022-09-06T09:40:50.342Z,2.83
2022-09-06T09:43:24.874Z,3.47
2022-09-06T09:46:16.832Z,3.75
2022-09-06T09:51:26.523Z,4.63
2022-09-06T09:54:00.381Z,2.85
2022-09-06T09:56:29.564Z,2.65
2022-09-06T09:58:59.054Z,2.55
2022-09-06T10:01:34.163Z,2.85
2022-09-06T10:07:08.987Z,2.13
2022-09-06T10:09:43.628Z,1.05
2022-09-06T10:12:20.836Z,1.50
2022-09-06T10:14:50.252Z,1.38
2022-09-06T10:17:34.415Z,1.48
2022-09-06T10:20:12.959Z,2.55
2022-09-06T10:22:56.338Z,2.40
2022-09-06T10:25:49.615Z,1.90
2022-09-06T10:28:41.832Z,2.35
2022-09-06T10:31:16.062Z,1.80
2022-09-06T10:33:49.531Z,1.95
2022-09-06T10:36:22.540Z,2.15
2022-09-06T10:38:59.287Z,1.70
2022-09-06T10:41:35.478Z,2.35
2022-09-06T10:44:32.150Z,2.20
2022-09-06T10:47:15.335Z,2.22
2022-09-06T10:49:50.423Z,2.08
2022-09-06T10:52:26.453Z,1.33
2022-09-06T10:55:02.164Z,1.42
2022-09-06T11:00:28.613Z,1.75
2022-09-06T11:06:03.578Z,1.98
2022-09-06T11:08:47.057Z,1.80
2022-09-06T11:11:23.274Z,2.33
2022-09-06T11:13:50.930Z,2.15
2022-09-06T11:16:40.111Z,3.25
2022-09-06T11:19:20.197Z,2.08
2022-09-06T11:22:19.031Z,2.20
2022-09-06T11:25:08.648Z,2.90
2022-09-06T11:27:41.160Z,2.17
2022-09-06T11:30:16.199Z,2.58
2022-09-06T11:32:49.026Z,3.15
2022-09-06T11:35:32.606Z,3.60
2022-09-06T11:38:17.270Z,3.53
2022-09-06T11:40:48.318Z,4.13
2022-09-06T11:43:39.947Z,3.90
2022-09-06T11:46:07.539Z,5.68
2022-09-06T11:48:50.897Z,4.10
2022-09-06T11:51:50.406Z,6.00
2022-09-06T11:54:30.224Z,5.50
2022-09-06T11:57:23.643Z,5.95
2022-09-06T12:00:01.582Z,5.25
2022-09-06T12:02:38.353Z,5.20
2022-09-06T12:05:07.338Z,3.53
2022-09-06T12:07:37.206Z,4.75
2022-09-06T12:10:32.493Z,5.60
2022-09-06T12:13:00.018Z,6.85
2022-09-06T12:15:30.570Z,6.07
2022-09-06T12:18:00.298Z,5.10
2022-09-06T12:20:51.054Z,5.25
2022-09-06T12:23:36.570Z,5.17
2022-09-06T12:26:05.919Z,4.90
2022-09-06T12:28:53.385Z,5.47
2022-09-06T12:31:25.568Z,6.40
2022-09-06T12:33:54.943Z,3.63
2022-09-06T12:36:29.634Z,4.00
2022-09-06T12:39:13.054Z,2.80
2022-09-06T12:41:44.311Z,3.80
2022-09-06T12:44:14.426Z,2.80
2022-09-06T12:46:47.796Z,2.42
2022-09-06T12:49:17.919Z,3.38
2022-09-06T12:51:45.509Z,3.63
2022-09-06T12:54:26.530Z,4.68
2022-09-06T12:56:54.675Z,3.65
2022-09-06T12:59:27.196Z,3.03
2022-09-06T13:02:13.862Z,2.25
2022-09-06T13:04:41.365Z,1.98
2022-09-06T13:07:16.563Z,1.63
2022-09-06T13:09:47.628Z,1.83
2022-09-06T13:12:35.669Z,1.25
2022-09-06T13:15:12.628Z,1.48
2022-09-06T13:17:40.346Z,2.00
2022-09-06T13:20:16.778Z,2.90
2022-09-06T13:22:49.329Z,3.10
2022-09-06T13:25:21.184Z,3.65
2022-09-06T13:27:51.134Z,2.38
2022-09-06T13:30:50.046Z,2.58
2022-09-06T13:33:27.735Z,2.33
2022-09-06T13:36:08.281Z,2.22
2022-09-06T13:38:38.842Z,2.22
2022-09-06T13:41:13.597Z,1.30
2022-09-06T13:43:46.003Z,1.58
2022-09-06T13:46:13.612Z,1.50
2022-09-06T13:48:42.884Z,1.60
2022-09-06T13:51:11.005Z,2.30
2022-09-06T13:53:38.484Z,1.75
2022-09-06T13:56:08.860Z,1.45
2022-09-06T13:58:37.330Z,0.93
2022-09-06T14:01:08.515Z,1.23
2022-09-06T14:06:03.632Z,1.63
2022-09-06T14:08:49.711Z,1.17
2022-09-06T14:11:19.848Z,0.65
2022-09-06T14:13:47.851Z,0.60
2022-09-06T14:16:15.503Z,0.80
2022-09-06T14:18:43.159Z,0.68
2022-09-06T14:21:10.721Z,0.88
2022-09-06T14:23:38.189Z,1.00
2022-09-06T14:26:06.458Z,1.10
2022-09-06T14:28:34.878Z,1.23
2022-09-06T14:31:20.707Z,1.30
2022-09-06T14:33:49.438Z,1.00
2022-09-06T14:36:19.650Z,1.13
2022-09-06T14:38:48.003Z,1.10
2022-09-06T14:41:17.733Z,1.13
2022-09-06T14:43:49.305Z,1.42
2022-09-06T14:48:46.966Z,1.00
2022-09-06T14:51:22.084Z,1.20
2022-09-06T14:53:52.281Z,1.50
2022-09-06T14:56:20.915Z,1.00
2022-09-06T14:58:48.455Z,1.27
2022-09-06T15:01:19.046Z,1.13
2022-09-06T15:03:51.428Z,0.98
2022-09-06T15:06:21.279Z,1.20
2022-09-06T15:08:50.111Z,0.85
2022-09-06T15:11:36.429Z,0.80
2022-09-06T15:14:06.251Z,1.00
2022-09-06T15:16:34.339Z,0.82
2022-09-06T15:19:02.738Z,0.70
2022-09-06T15:21:30.990Z,0.90
2022-09-06T15:24:00.170Z,0.90
2022-09-06T15:26:28.202Z,1.00
2022-09-06T15:28:56.029Z,0.68
2022-09-06T15:31:23.618Z,2.00
2022-09-06T15:33:52.885Z,0.77
2022-09-06T15:36:21.845Z,0.80
2022-09-06T15:38:52.312Z,0.60
2022-09-06T15:41:25.391Z,0.90
2022-09-06T15:43:58.619Z,0.70
2022-09-06T15:46:44.423Z,0.60
2022-09-06T15:49:16.332Z,0.60
2022-09-06T15:51:44.499Z,0.80
2022-09-06T15:54:14.136Z,0.82
2022-09-06T15:56:42.236Z,1.70
2022-09-06T15:59:10.254Z,0.50
2022-09-06T16:01:38.548Z,0.60
2022-09-06T16:04:07.487Z,0.50
2022-09-06T16:06:42.059Z,0.55
2022-09-06T16:09:14.062Z,0.77
2022-09-06T16:11:43.340Z,0.90
2022-09-06T16:14:14.217Z,0.50
2022-09-06T16:16:43.492Z,0.87
2022-09-06T16:19:12.881Z,0.50
2022-09-06T16:21:42.809Z,0.57
2022-09-06T16:24:13.001Z,0.52
2022-09-06T16:26:43.515Z,0.40
2022-09-06T16:29:12.907Z,0.60
2022-09-06T16:31:41.066Z,0.50
2022-09-06T16:34:12.495Z,0.50
2022-09-06T16:36:40.194Z,0.40
2022-09-06T16:39:08.901Z,0.47
2022-09-06T16:41:42.535Z,0.70
2022-09-06T16:44:15.938Z,0.80
2022-09-06T16:46:50.865Z,0.95
2022-09-06T16:49:19.541Z,0.70
2022-09-06T16:51:48.437Z,0.60
2022-09-06T16:54:16.676Z,0.52
2022-09-06T16:56:44.837Z,0.60
2022-09-06T16:59:15.136Z,0.68
2022-09-06T17:01:43.409Z,0.68
2022-09-06T17:04:12.700Z,0.43
2022-09-06T17:06:44.396Z,0.80
2022-09-06T17:09:18.701Z,4.43
2022-09-06T17:11:47.600Z,0.80
2022-09-06T17:14:15.078Z,0.60
2022-09-06T17:17:00.331Z,0.90
2022-09-06T17:19:27.973Z,0.73
2022-09-06T17:21:55.464Z,0.80
2022-09-06T17:24:22.973Z,0.65
2022-09-06T17:26:50.474Z,0.80
2022-09-06T17:29:17.961Z,0.90
2022-09-06T17:31:45.617Z,0.50
2022-09-06T17:34:13.110Z,0.82
2022-09-06T17:36:40.639Z,0.73
2022-09-06T17:39:11.099Z,0.85
2022-09-06T17:41:40.163Z,1.00
2022-09-06T17:44:11.122Z,1.17
2022-09-06T17:46:52.014Z,0.95
2022-09-06T17:49:27.265Z,0.90
2022-09-06T17:51:55.396Z,0.90
2022-09-06T17:54:23.535Z,0.88
2022-09-06T17:56:51.287Z,1.00
2022-09-06T17:59:18.791Z,1.52
2022-09-06T18:01:46.543Z,0.75
2022-09-06T18:04:15.465Z,1.77
2022-09-06T18:06:46.438Z,1.10
2022-09-06T18:09:17.214Z,1.10
2022-09-06T18:11:46.542Z,1.20
2022-09-06T18:14:20.934Z,0.90
2022-09-06T18:16:49.729Z,1.50
2022-09-06T18:19:18.766Z,1.00
2022-09-06T18:21:47.402Z,1.10
2022-09-06T18:24:15.223Z,1.10
2022-09-06T18:26:43.305Z,1.52
2022-09-06T18:29:15.057Z,1.17
2022-09-06T18:34:11.149Z,1.42
2022-09-06T18:36:40.313Z,1.40
2022-09-06T18:39:08.375Z,1.30
2022-09-06T18:41:53.893Z,1.73
2022-09-06T18:44:21.861Z,1.33
2022-09-06T18:46:49.944Z,1.23
2022-09-06T18:49:18.453Z,1.40
2022-09-06T18:51:46.380Z,1.77
2022-09-06T18:54:14.992Z,1.98
2022-09-06T18:56:44.755Z,1.90
2022-09-06T18:59:13.692Z,2.00
2022-09-06T19:01:42.774Z,2.10
2022-09-06T19:04:11.421Z,2.28
2022-09-06T19:06:40.317Z,2.47
2022-09-06T19:09:11.069Z,2.22
2022-09-06T19:11:38.629Z,2.35
2022-09-06T19:14:06.601Z,2.10
2022-09-06T19:16:34.671Z,1.70
2022-09-06T19:19:04.978Z,2.30
2022-09-06T19:21:36.606Z,1.88
2022-09-06T19:24:10.157Z,1.98
2022-09-06T19:26:40.484Z,2.00
2022-09-06T19:29:12.418Z,2.17
2022-09-06T19:34:07.791Z,1.45
2022-09-06T19:36:35.824Z,1.70
2022-09-06T19:39:06.817Z,1.83
2022-09-06T19:41:38.458Z,1.60
2022-09-06T19:44:08.553Z,1.40
2022-09-06T19:46:37.168Z,1.30
2022-09-06T19:49:08.123Z,1.33
2022-09-06T19:51:37.287Z,1.27
2022-09-06T19:54:05.117Z,1.73
2022-09-06T19:56:35.228Z,1.60
2022-09-06T19:59:05.802Z,1.75
2022-09-06T20:01:34.721Z,2.15
2022-09-06T20:04:03.994Z,1.70
2022-09-06T20:06:32.278Z,1.70
2022-09-06T20:09:01.621Z,2.70
2022-09-06T20:11:31.796Z,2.10
2022-09-06T20:14:00.362Z,1.80
2022-09-06T20:16:28.325Z,2.30
2022-09-06T20:18:56.419Z,2.38
2022-09-06T20:21:23.911Z,2.35
2022-09-06T20:23:56.082Z,2.63
2022-09-06T20:26:25.220Z,3.00
2022-09-06T20:29:01.344Z,2.10
2022-09-06T20:31:30.475Z,2.65
2022-09-06T20:34:02.065Z,2.50
2022-09-06T20:36:30.194Z,2.95
2022-09-06T20:38:58.240Z,2.65
2022-09-06T20:41:28.729Z,2.80
2022-09-06T20:43:58.540Z,3.63
2022-09-06T20:46:31.660Z,3.90
2022-09-06T20:49:03.504Z,3.92
2022-09-06T20:51:31.845Z,3.65
2022-09-06T20:54:01.028Z,5.90
2022-09-06T20:56:34.268Z,4.15
2022-09-06T20:59:03.663Z,4.82
2022-09-06T21:01:35.146Z,6.15
2022-09-06T21:04:05.693Z,7.93
2022-09-06T21:06:35.641Z,8.07
2022-09-06T21:09:09.253Z,8.20
2022-09-06T21:11:37.465Z,9.23
2022-09-06T21:14:05.884Z,9.43
2022-09-06T21:16:34.052Z,9.32
2022-09-06T21:19:07.118Z,9.55
2022-09-06T21:21:35.666Z,9.07
2022-09-06T21:24:05.325Z,8.73
2022-09-06T21:26:33.378Z,9.15
2022-09-06T21:29:01.404Z,8.20
2022-09-06T21:31:32.057Z,8.95
2022-09-06T21:34:03.292Z,9.25
2022-09-06T21:36:33.011Z,8.17
2022-09-06T21:39:02.690Z,9.15
2022-09-06T21:41:31.462Z,9.32
2022-09-06T21:44:01.380Z,10.40
2022-09-06T21:46:34.031Z,8.98
2022-09-06T21:49:07.282Z,10.02
2022-09-06T21:51:35.501Z,9.70
2022-09-06T21:54:04.906Z,8.27
2022-09-06T21:56:35.944Z,8.27
2022-09-06T21:59:04.181Z,8.10
2022-09-06T22:01:34.011Z,6.70
2022-09-06T22:04:02.294Z,6.68
2022-09-06T22:06:31.720Z,7.10
2022-09-06T22:09:04.176Z,7.07
2022-09-06T22:11:37.270Z,7.03
2022-09-06T22:14:11.343Z,7.45
2022-09-06T22:16:40.362Z,7.43
2022-09-06T22:19:09.241Z,8.63
2022-09-06T22:21:38.591Z,8.80
2022-09-06T22:24:09.591Z,7.05
2022-09-06T22:26:38.983Z,6.25
2022-09-06T22:29:08.395Z,4.55
2022-09-06T22:31:36.866Z,2.78
2022-09-06T22:34:05.077Z,3.50
2022-09-06T22:36:33.473Z,2.70
2022-09-06T22:39:01.032Z,3.92
2022-09-06T22:41:32.181Z,3.90
2022-09-06T22:44:03.163Z,4.45
2022-09-06T22:46:30.875Z,4.60
2022-09-06T22:48:58.725Z,4.38
2022-09-06T22:51:26.281Z,3.17
2022-09-06T22:53:53.892Z,4.40
2022-09-06T22:56:21.731Z,3.42
2022-09-06T22:58:49.804Z,3.90
2022-09-06T23:01:18.198Z,4.05
2022-09-06T23:03:47.963Z,2.80
2022-09-06T23:06:15.523Z,2.50
2022-09-06T23:08:43.431Z,2.38
2022-09-06T23:11:15.413Z,2.42
2022-09-06T23:13:44.203Z,2.13
2022-09-06T23:16:14.790Z,2.72
2022-09-06T23:18:42.497Z,2.17
2022-09-06T23:21:12.958Z,1.95
2022-09-06T23:23:41.304Z,2.15
2022-09-06T23:26:11.097Z,1.80
2022-09-06T23:28:39.627Z,2.65
2022-09-06T23:31:09.445Z,2.53
2022-09-06T23:33:37.617Z,3.40
2022-09-06T23:39:01.817Z,3.33
2022-09-06T23:41:29.602Z,3.15
2022-09-06T23:43:57.434Z,4.13
2022-09-06T23:46:24.978Z,4.07
2022-09-06T23:48:52.960Z,4.07
2022-09-06T23:51:20.479Z,4.20
2022-09-06T23:53:47.974Z,3.00
2022-09-06T23:56:15.726Z,3.65
2022-09-06T23:58:43.236Z,2.95
